Thunder radar more information blitzortung!


Radar de pluja more information rain snow radar


Visita la nostra xarxa de llocs de meteo:

Template documentation
and downloads

And another site



No particular awareness of the weather is required.    There are no Weather-warnings

Pagina Historial Weather Underground text

Diari Resum Setembre 11, 2017 Unitats:  Tant    Imperial   Mètric
« Previous Dia
SegĂźent Dia »
Diari Setmana Mensual Anual Personalitzada
  Maxima: Minima: Media:
Temperatura: 88 °F /  31.1 °C 61.3 °F /  16.3 °C 77.2 °F /  25.1 °C
Punt de rosada: 59.2 °F /  15.1 °C 43.7 °F /  6.5 °C 53.1 °F /  11.7 °C
Humitat: 81 % 31 % 45 %
Wind Speed: 12.8 mph /  20.6 km/h - 5.5 mph /  8.8 km/h
RĂ fegues de vent: 12.8 mph /  20.6 km/h - -
Vent:- - SW
Pression baro: 29.9 in /  1011.7 hPa 29.7 in /  1007.0 hPa -
Precipitacions: 0 in /  0.0 mm    
Historical Graphs
 
 
Dades de taula per Setembre 11, 2017
Temps Temperatura Punt de rosada Pression baro Vent Wind Speed RĂ fegues de vent Humitat Rainfall Rate (Hourly)
00:00 62.2 °F /  16.8 °C 43.9 °F /  6.6 °C 29.8 in /  1009.0 hPa WNW 1 mph /  1.6 km/h 2 mph /  3.2 km/h 51 % 0 in /  0.0 mm
00:01 65.5 °F /  18.6 °C 47.5 °F /  8.6 °C 29.8 in /  1010.0 hPa NNE 3.5 mph /  5.6 km/h 3.5 mph /  5.6 km/h 52 % 0 in /  0.0 mm
00:06 65.5 °F /  18.6 °C 47.5 °F /  8.6 °C 29.8 in /  1010.0 hPa NNE 3.5 mph /  5.6 km/h 3.5 mph /  5.6 km/h 52 % 0 in /  0.0 mm
00:10 62.1 °F /  16.7 °C 43.7 °F /  6.5 °C 29.8 in /  1009.0 hPa Calm   2 mph /  3.2 km/h 51 % 0 in /  0.0 mm
00:20 62.1 °F /  16.7 °C 44.2 °F /  6.8 °C 29.8 in /  1009.0 hPa WSW 1 mph /  1.6 km/h 5 mph /  8.0 km/h 52 % 0 in /  0.0 mm
00:30 62.1 °F /  16.7 °C 44.2 °F /  6.8 °C 29.8 in /  1009.0 hPa WSW 2 mph /  3.2 km/h 2 mph /  3.2 km/h 52 % 0 in /  0.0 mm
00:40 61.9 °F /  16.6 °C 44.1 °F /  6.7 °C 29.8 in /  1009.0 hPa WSW 1 mph /  1.6 km/h 2 mph /  3.2 km/h 52 % 0 in /  0.0 mm
00:50 62.2 °F /  16.8 °C 44.4 °F /  6.9 °C 29.8 in /  1009.0 hPa West 2 mph /  3.2 km/h 4 mph /  6.4 km/h 52 % 0 in /  0.0 mm
01:00 62.6 °F /  17.0 °C 44.8 °F /  7.1 °C 29.8 in /  1009.0 hPa West 2 mph /  3.2 km/h 4 mph /  6.4 km/h 52 % 0 in /  0.0 mm
01:10 62.6 °F /  17.0 °C 44.8 °F /  7.1 °C 29.8 in /  1008.0 hPa West 2 mph /  3.2 km/h 3 mph /  4.8 km/h 52 % 0 in /  0.0 mm
01:20 62.4 °F /  16.9 °C 45.1 °F /  7.3 °C 29.8 in /  1008.0 hPa West 2 mph /  3.2 km/h 6 mph /  9.7 km/h 53 % 0 in /  0.0 mm
01:30 62.2 °F /  16.8 °C 45.3 °F /  7.4 °C 29.8 in /  1008.0 hPa West 2 mph /  3.2 km/h 2 mph /  3.2 km/h 54 % 0 in /  0.0 mm
01:40 62.4 °F /  16.9 °C 45.5 °F /  7.5 °C 29.8 in /  1008.0 hPa WSW 1 mph /  1.6 km/h 3 mph /  4.8 km/h 54 % 0 in /  0.0 mm
01:50 62.1 °F /  16.7 °C 45.7 °F /  7.6 °C 29.8 in /  1008.0 hPa WSW 1 mph /  1.6 km/h 2 mph /  3.2 km/h 55 % 0 in /  0.0 mm
02:00 61.9 °F /  16.6 °C 45.5 °F /  7.5 °C 29.8 in /  1009.0 hPa WSW 1 mph /  1.6 km/h 2 mph /  3.2 km/h 55 % 0 in /  0.0 mm
02:10 61.3 °F /  16.3 °C 45.5 °F /  7.5 °C 29.8 in /  1008.0 hPa WSW 1 mph /  1.6 km/h 1 mph /  1.6 km/h 56 % 0 in /  0.0 mm
02:20 61.5 °F /  16.4 °C 45.7 °F /  7.6 °C 29.8 in /  1008.0 hPa North 2 mph /  3.2 km/h 2 mph /  3.2 km/h 56 % 0 in /  0.0 mm
02:30 61.9 °F /  16.6 °C 46.6 °F /  8.1 °C 29.8 in /  1009.0 hPa WNW 1 mph /  1.6 km/h 3 mph /  4.8 km/h 57 % 0 in /  0.0 mm
02:40 61.9 °F /  16.6 °C 46.9 °F /  8.3 °C 29.8 in /  1009.0 hPa Calm   4 mph /  6.4 km/h 58 % 0 in /  0.0 mm
02:50 62.1 °F /  16.7 °C 47.1 °F /  8.4 °C 29.8 in /  1009.0 hPa Calm   2 mph /  3.2 km/h 58 % 0 in /  0.0 mm
03:00 62.2 °F /  16.8 °C 47.3 °F /  8.5 °C 29.8 in /  1008.0 hPa SW 1 mph /  1.6 km/h 2 mph /  3.2 km/h 58 % 0 in /  0.0 mm
03:10 63.5 °F /  17.5 °C 48 °F /  8.9 °C 29.8 in /  1008.0 hPa SE 1 mph /  1.6 km/h 2 mph /  3.2 km/h 57 % 0 in /  0.0 mm
03:20 64 °F /  17.8 °C 48.6 °F /  9.2 °C 29.8 in /  1008.0 hPa NW 1 mph /  1.6 km/h 2 mph /  3.2 km/h 57 % 0 in /  0.0 mm
03:30 64 °F /  17.8 °C 48.6 °F /  9.2 °C 29.8 in /  1008.0 hPa North 2 mph /  3.2 km/h 3 mph /  4.8 km/h 57 % 0 in /  0.0 mm
03:40 64.9 °F /  18.3 °C 49.3 °F /  9.6 °C 29.8 in /  1009.0 hPa NNE 1 mph /  1.6 km/h 2 mph /  3.2 km/h 57 % 0 in /  0.0 mm
03:50 65.3 °F /  18.5 °C 49.6 °F /  9.8 °C 29.8 in /  1009.0 hPa WNW 2 mph /  3.2 km/h 6 mph /  9.7 km/h 57 % 0 in /  0.0 mm
04:00 66.6 °F /  19.2 °C 50.7 °F /  10.4 °C 29.8 in /  1009.0 hPa West 1 mph /  1.6 km/h 3 mph /  4.8 km/h 57 % 0 in /  0.0 mm
04:10 67.8 °F /  19.9 °C 51.4 °F /  10.8 °C 29.8 in /  1009.0 hPa West 2 mph /  3.2 km/h 3 mph /  4.8 km/h 56 % 0 in /  0.0 mm
04:20 68.4 °F /  20.2 °C 51.6 °F /  10.9 °C 29.8 in /  1009.0 hPa West 1 mph /  1.6 km/h 2 mph /  3.2 km/h 55 % 0 in /  0.0 mm
04:30 67.8 °F /  19.9 °C 51.1 °F /  10.6 °C 29.8 in /  1008.0 hPa West 2 mph /  3.2 km/h 5 mph /  8.0 km/h 55 % 0 in /  0.0 mm
04:40 68.5 °F /  20.3 °C 51.6 °F /  10.9 °C 29.8 in /  1008.0 hPa West 5 mph /  8.0 km/h 5 mph /  8.0 km/h 55 % 0 in /  0.0 mm
04:50 69.1 °F /  20.6 °C 52.2 °F /  11.2 °C 29.8 in /  1008.0 hPa West 3 mph /  4.8 km/h 5 mph /  8.0 km/h 55 % 0 in /  0.0 mm
05:00 69.8 °F /  21.0 °C 52.3 °F /  11.3 °C 29.8 in /  1008.0 hPa WSW 5 mph /  8.0 km/h 6 mph /  9.7 km/h 54 % 0 in /  0.0 mm
05:10 70.7 °F /  21.5 °C 53.2 °F /  11.8 °C 29.8 in /  1008.0 hPa WSW 3 mph /  4.8 km/h 5 mph /  8.0 km/h 54 % 0 in /  0.0 mm
05:20 71.8 °F /  22.1 °C 53.8 °F /  12.1 °C 29.8 in /  1008.0 hPa WSW 3 mph /  4.8 km/h 3 mph /  4.8 km/h 53 % 0 in /  0.0 mm
05:30 72.5 °F /  22.5 °C 54 °F /  12.2 °C 29.8 in /  1008.0 hPa SW 3 mph /  4.8 km/h 6 mph /  9.7 km/h 52 % 0 in /  0.0 mm
05:35 72.7 °F /  22.6 °C 54 °F /  12.2 °C 29.8 in /  1008.0 hPa WSW 5 mph /  8.0 km/h 5 mph /  8.0 km/h 52 % 0 in /  0.0 mm
10:35 72.7 °F /  22.6 °C 54 °F /  12.2 °C 29.8 in /  1008.0 hPa West 4.6 mph /  7.4 km/h 4.6 mph /  7.4 km/h 52 % 0 in /  0.0 mm
10:40 73.8 °F /  23.2 °C 54.5 °F /  12.5 °C 29.8 in /  1008.0 hPa WNW 3.5 mph /  5.6 km/h 3.5 mph /  5.6 km/h 51 % 0 in /  0.0 mm
10:45 73.8 °F /  23.2 °C 54 °F /  12.2 °C 29.8 in /  1008.0 hPa West 9.2 mph /  14.8 km/h 9.2 mph /  14.8 km/h 50 % 0 in /  0.0 mm
10:50 73.8 °F /  23.2 °C 54 °F /  12.2 °C 29.8 in /  1009.0 hPa South 6.9 mph /  11.1 km/h 6.9 mph /  11.1 km/h 50 % 0 in /  0.0 mm
10:55 75.2 °F /  24.0 °C 55.2 °F /  12.9 °C 29.8 in /  1009.0 hPa West 3.5 mph /  5.6 km/h 3.5 mph /  5.6 km/h 50 % 0 in /  0.0 mm
11:00 75.7 °F /  24.3 °C 55.8 °F /  13.2 °C 29.8 in /  1009.0 hPa West 4.6 mph /  7.4 km/h 4.6 mph /  7.4 km/h 50 % 0 in /  0.0 mm
11:05 75.7 °F /  24.3 °C 55.2 °F /  12.9 °C 29.8 in /  1009.0 hPa North 5.8 mph /  9.3 km/h 5.8 mph /  9.3 km/h 49 % 0 in /  0.0 mm
11:10 75.7 °F /  24.3 °C 55.2 °F /  12.9 °C 29.8 in /  1009.0 hPa West 5.8 mph /  9.3 km/h 5.8 mph /  9.3 km/h 49 % 0 in /  0.0 mm
11:15 76.3 °F /  24.6 °C 55.8 °F /  13.2 °C 29.8 in /  1009.0 hPa WSW 5.8 mph /  9.3 km/h 5.8 mph /  9.3 km/h 49 % 0 in /  0.0 mm
11:20 76.8 °F /  24.9 °C 56.1 °F /  13.4 °C 29.8 in /  1009.0 hPa WSW 4.6 mph /  7.4 km/h 4.6 mph /  7.4 km/h 49 % 0 in /  0.0 mm
11:25 77.5 °F /  25.3 °C 55.8 °F /  13.2 °C 29.8 in /  1009.0 hPa West 3.8 mph /  6.1 km/h 3.8 mph /  6.1 km/h 47 % 0 in /  0.0 mm
11:30 77.5 °F /  25.3 °C 55.8 °F /  13.2 °C 29.8 in /  1009.0 hPa WSW 4.6 mph /  7.4 km/h 4.6 mph /  7.4 km/h 47 % 0 in /  0.0 mm
11:35 77.7 °F /  25.4 °C 55.9 °F /  13.3 °C 29.8 in /  1009.0 hPa SSW 10.4 mph /  16.7 km/h 10.4 mph /  16.7 km/h 47 % 0 in /  0.0 mm
11:40 77.9 °F /  25.5 °C 55.6 °F /  13.1 °C 29.8 in /  1009.0 hPa WSW 5.8 mph /  9.3 km/h 5.8 mph /  9.3 km/h 46 % 0 in /  0.0 mm
11:45 78.1 °F /  25.6 °C 55.6 °F /  13.1 °C 29.8 in /  1009.0 hPa West 8.1 mph /  13.0 km/h 8.1 mph /  13.0 km/h 46 % 0 in /  0.0 mm
11:50 77.9 °F /  25.5 °C 55.6 °F /  13.1 °C 29.8 in /  1008.0 hPa West 10.4 mph /  16.7 km/h 10.4 mph /  16.7 km/h 46 % 0 in /  0.0 mm
11:55 79 °F /  26.1 °C 56.5 °F /  13.6 °C 29.8 in /  1008.0 hPa SSE 8.1 mph /  13.0 km/h 8.1 mph /  13.0 km/h 46 % 0 in /  0.0 mm
12:00 79.5 °F /  26.4 °C 56.8 °F /  13.8 °C 29.8 in /  1008.0 hPa WSW 8.1 mph /  13.0 km/h 8.1 mph /  13.0 km/h 46 % 0 in /  0.0 mm
12:05 79.5 °F /  26.4 °C 56.3 °F /  13.5 °C 29.8 in /  1008.0 hPa West 7.4 mph /  11.9 km/h 7.4 mph /  11.9 km/h 45 % 0 in /  0.0 mm
12:10 79.3 °F /  26.3 °C 56.1 °F /  13.4 °C 29.8 in /  1008.0 hPa SW 9.2 mph /  14.8 km/h 9.2 mph /  14.8 km/h 45 % 0 in /  0.0 mm
12:15 80.4 °F /  26.9 °C 57 °F /  13.9 °C 29.8 in /  1008.0 hPa WSW 8.7 mph /  14.0 km/h 8.7 mph /  14.0 km/h 45 % 0 in /  0.0 mm
12:20 80.6 °F /  27.0 °C 55.9 °F /  13.3 °C 29.8 in /  1008.0 hPa SSW 6.9 mph /  11.1 km/h 6.9 mph /  11.1 km/h 43 % 0 in /  0.0 mm
12:25 81 °F /  27.2 °C 56.5 °F /  13.6 °C 29.8 in /  1008.0 hPa SSW 8.1 mph /  13.0 km/h 8.1 mph /  13.0 km/h 43 % 0 in /  0.0 mm
12:30 80.4 °F /  26.9 °C 55.9 °F /  13.3 °C 29.8 in /  1008.0 hPa SW 8.1 mph /  13.0 km/h 8.1 mph /  13.0 km/h 43 % 0 in /  0.0 mm
12:35 80.6 °F /  27.0 °C 55.4 °F /  13.0 °C 29.8 in /  1008.0 hPa ESE 10.4 mph /  16.7 km/h 10.4 mph /  16.7 km/h 42 % 0 in /  0.0 mm
12:40 81 °F /  27.2 °C 55.8 °F /  13.2 °C 29.8 in /  1008.0 hPa West 10.4 mph /  16.7 km/h 10.4 mph /  16.7 km/h 42 % 0 in /  0.0 mm
12:45 81.3 °F /  27.4 °C 55.9 °F /  13.3 °C 29.8 in /  1008.0 hPa West 5.9 mph /  9.5 km/h 5.9 mph /  9.5 km/h 42 % 0 in /  0.0 mm
12:50 81.7 °F /  27.6 °C 56.5 °F /  13.6 °C 29.8 in /  1008.0 hPa NNW 9.2 mph /  14.8 km/h 9.2 mph /  14.8 km/h 42 % 0 in /  0.0 mm
12:51 81.7 °F /  27.6 °C 56.5 °F /  13.6 °C 29.8 in /  1008.0 hPa SW 12.8 mph /  20.6 km/h 12.8 mph /  20.6 km/h 42 % 0 in /  0.0 mm
12:56 81.7 °F /  27.6 °C 55.8 °F /  13.2 °C 29.8 in /  1008.0 hPa WNW 7.8 mph /  12.6 km/h 7.8 mph /  12.6 km/h 41 % 0 in /  0.0 mm
13:01 81.5 °F /  27.5 °C 55.6 °F /  13.1 °C 29.8 in /  1008.0 hPa WSW 8.1 mph /  13.0 km/h 8.1 mph /  13.0 km/h 41 % 0 in /  0.0 mm
13:06 81.9 °F /  27.7 °C 55.9 °F /  13.3 °C 29.8 in /  1008.0 hPa WNW 8.1 mph /  13.0 km/h 8.1 mph /  13.0 km/h 41 % 0 in /  0.0 mm
13:11 82.2 °F /  27.9 °C 56.1 °F /  13.4 °C 29.8 in /  1008.0 hPa WSW 8.1 mph /  13.0 km/h 8.1 mph /  13.0 km/h 41 % 0 in /  0.0 mm
13:16 82.2 °F /  27.9 °C 56.1 °F /  13.4 °C 29.8 in /  1008.0 hPa SW 9.2 mph /  14.8 km/h 9.2 mph /  14.8 km/h 41 % 0 in /  0.0 mm
13:21 82.9 °F /  28.3 °C 56.8 °F /  13.8 °C 29.8 in /  1008.0 hPa West 6.9 mph /  11.1 km/h 6.9 mph /  11.1 km/h 41 % 0 in /  0.0 mm
13:26 82.4 °F /  28.0 °C 55.8 °F /  13.2 °C 29.8 in /  1008.0 hPa WNW 10.4 mph /  16.7 km/h 10.4 mph /  16.7 km/h 40 % 0 in /  0.0 mm
13:31 83.1 °F /  28.4 °C 56.3 °F /  13.5 °C 29.8 in /  1008.0 hPa WSW 9.2 mph /  14.8 km/h 9.2 mph /  14.8 km/h 40 % 0 in /  0.0 mm
13:36 83.7 °F /  28.7 °C 56.8 °F /  13.8 °C 29.8 in /  1008.0 hPa North 5.8 mph /  9.3 km/h 5.8 mph /  9.3 km/h 40 % 0 in /  0.0 mm
13:41 84 °F /  28.9 °C 57 °F /  13.9 °C 29.8 in /  1008.0 hPa SW 8.1 mph /  13.0 km/h 8.1 mph /  13.0 km/h 40 % 0 in /  0.0 mm
13:46 83.8 °F /  28.8 °C 56.8 °F /  13.8 °C 29.8 in /  1008.0 hPa SSE 6.9 mph /  11.1 km/h 6.9 mph /  11.1 km/h 40 % 0 in /  0.0 mm
13:51 84.2 °F /  29.0 °C 56.7 °F /  13.7 °C 29.7 in /  1007.0 hPa WSW 6 mph /  9.7 km/h 6 mph /  9.7 km/h 39 % 0 in /  0.0 mm
13:56 84.7 °F /  29.3 °C 57 °F /  13.9 °C 29.7 in /  1007.0 hPa West 5.9 mph /  9.5 km/h 5.9 mph /  9.5 km/h 39 % 0 in /  0.0 mm
14:01 85.3 °F /  29.6 °C 56.8 °F /  13.8 °C 29.7 in /  1007.0 hPa SW 11.5 mph /  18.5 km/h 11.5 mph /  18.5 km/h 38 % 0 in /  0.0 mm
14:06 84.9 °F /  29.4 °C 56.5 °F /  13.6 °C 29.8 in /  1008.0 hPa WNW 8.1 mph /  13.0 km/h 8.1 mph /  13.0 km/h 38 % 0 in /  0.0 mm
14:11 84.9 °F /  29.4 °C 56.5 °F /  13.6 °C 29.8 in /  1008.0 hPa SW 6.9 mph /  11.1 km/h 6.9 mph /  11.1 km/h 38 % 0 in /  0.0 mm
14:16 84.7 °F /  29.3 °C 56.3 °F /  13.5 °C 29.8 in /  1008.0 hPa WSW 5.8 mph /  9.3 km/h 5.8 mph /  9.3 km/h 38 % 0 in /  0.0 mm
14:21 84.6 °F /  29.2 °C 56.1 °F /  13.4 °C 29.7 in /  1007.0 hPa SW 5.8 mph /  9.3 km/h 5.8 mph /  9.3 km/h 38 % 0 in /  0.0 mm
14:26 84.2 °F /  29.0 °C 55.8 °F /  13.2 °C 29.7 in /  1007.0 hPa WSW 3.5 mph /  5.6 km/h 3.5 mph /  5.6 km/h 38 % 0 in /  0.0 mm
14:32 83.8 °F /  28.8 °C 56.1 °F /  13.4 °C 29.7 in /  1007.0 hPa WSW 5.8 mph /  9.3 km/h 5.8 mph /  9.3 km/h 39 % 0 in /  0.0 mm
14:37 83.8 °F /  28.8 °C 56.1 °F /  13.4 °C 29.8 in /  1009.0 hPa SW 3.5 mph /  5.6 km/h 3.5 mph /  5.6 km/h 39 % 0 in /  0.0 mm
14:42 84.4 °F /  29.1 °C 55.9 °F /  13.3 °C 29.8 in /  1009.0 hPa West 5.8 mph /  9.3 km/h 5.8 mph /  9.3 km/h 38 % 0 in /  0.0 mm
14:47 84.4 °F /  29.1 °C 55.9 °F /  13.3 °C 29.8 in /  1009.0 hPa NE 3.5 mph /  5.6 km/h 3.5 mph /  5.6 km/h 38 % 0 in /  0.0 mm
14:52 84.9 °F /  29.4 °C 56.5 °F /  13.6 °C 29.8 in /  1008.0 hPa WSW 3.1 mph /  5.0 km/h 3.1 mph /  5.0 km/h 38 % 0 in /  0.0 mm
14:57 85.6 °F /  29.8 °C 57 °F /  13.9 °C 29.8 in /  1008.0 hPa NW 4.6 mph /  7.4 km/h 4.6 mph /  7.4 km/h 38 % 0 in /  0.0 mm
15:02 86.5 °F /  30.3 °C 57.2 °F /  14.0 °C 29.8 in /  1008.0 hPa NNE 6.2 mph /  10.0 km/h 6.2 mph /  10.0 km/h 37 % 0 in /  0.0 mm
15:07 86.2 °F /  30.1 °C 56.1 °F /  13.4 °C 29.8 in /  1008.0 hPa West 5.8 mph /  9.3 km/h 5.8 mph /  9.3 km/h 36 % 0 in /  0.0 mm
15:12 85.5 °F /  29.7 °C 55.6 °F /  13.1 °C 29.8 in /  1008.0 hPa WNW 6.9 mph /  11.1 km/h 6.9 mph /  11.1 km/h 36 % 0 in /  0.0 mm
15:17 85.1 °F /  29.5 °C 55 °F /  12.8 °C 29.8 in /  1008.0 hPa West 5.9 mph /  9.5 km/h 5.9 mph /  9.5 km/h 36 % 0 in /  0.0 mm
15:22 86 °F /  30.0 °C 55.2 °F /  12.9 °C 29.8 in /  1008.0 hPa WNW 3.5 mph /  5.6 km/h 3.5 mph /  5.6 km/h 35 % 0 in /  0.0 mm
15:27 88 °F /  31.1 °C 56.1 °F /  13.4 °C 29.8 in /  1008.0 hPa SW 4.6 mph /  7.4 km/h 4.6 mph /  7.4 km/h 34 % 0 in /  0.0 mm
15:32 87.8 °F /  31.0 °C 55.9 °F /  13.3 °C 29.8 in /  1008.0 hPa West 5.8 mph /  9.3 km/h 5.8 mph /  9.3 km/h 34 % 0 in /  0.0 mm
15:37 86.9 °F /  30.5 °C 54.3 °F /  12.4 °C 29.7 in /  1007.0 hPa WSW 8.1 mph /  13.0 km/h 8.1 mph /  13.0 km/h 33 % 0 in /  0.0 mm
15:42 85.8 °F /  29.9 °C 53.4 °F /  11.9 °C 29.7 in /  1007.0 hPa WSW 5.8 mph /  9.3 km/h 5.8 mph /  9.3 km/h 33 % 0 in /  0.0 mm
15:47 85.6 °F /  29.8 °C 53.2 °F /  11.8 °C 29.7 in /  1007.0 hPa WSW 4.6 mph /  7.4 km/h 4.6 mph /  7.4 km/h 33 % 0 in /  0.0 mm
15:52 85.3 °F /  29.6 °C 52.2 °F /  11.2 °C 29.8 in /  1008.0 hPa NNW 8.1 mph /  13.0 km/h 8.1 mph /  13.0 km/h 32 % 0 in /  0.0 mm
15:57 86.9 °F /  30.5 °C 53.4 °F /  11.9 °C 29.8 in /  1008.0 hPa WSW 8.1 mph /  13.0 km/h 8.1 mph /  13.0 km/h 32 % 0 in /  0.0 mm
16:02 87.1 °F /  30.6 °C 53.6 °F /  12.0 °C 29.8 in /  1008.0 hPa WNW 6.9 mph /  11.1 km/h 6.9 mph /  11.1 km/h 32 % 0 in /  0.0 mm
16:07 87.1 °F /  30.6 °C 53.6 °F /  12.0 °C 29.8 in /  1008.0 hPa West 6.9 mph /  11.1 km/h 6.9 mph /  11.1 km/h 32 % 0 in /  0.0 mm
16:12 86.5 °F /  30.3 °C 52.3 °F /  11.3 °C 29.8 in /  1008.0 hPa West 6.9 mph /  11.1 km/h 6.9 mph /  11.1 km/h 31 % 0 in /  0.0 mm
16:17 84 °F /  28.9 °C 51.1 °F /  10.6 °C 29.8 in /  1008.0 hPa ESE 7.8 mph /  12.6 km/h 7.8 mph /  12.6 km/h 32 % 0 in /  0.0 mm
16:22 84.6 °F /  29.2 °C 51.4 °F /  10.8 °C 29.8 in /  1008.0 hPa South 5.8 mph /  9.3 km/h 5.8 mph /  9.3 km/h 32 % 0 in /  0.0 mm
16:27 81.5 °F /  27.5 °C 49.6 °F /  9.8 °C 29.8 in /  1008.0 hPa ESE 10.4 mph /  16.7 km/h 10.4 mph /  16.7 km/h 33 % 0 in /  0.0 mm
16:32 80.6 °F /  27.0 °C 49.6 °F /  9.8 °C 29.8 in /  1008.0 hPa North 5.4 mph /  8.7 km/h 5.4 mph /  8.7 km/h 34 % 0 in /  0.0 mm
16:37 80.6 °F /  27.0 °C 50.4 °F /  10.2 °C 29.8 in /  1008.0 hPa East 6.9 mph /  11.1 km/h 6.9 mph /  11.1 km/h 35 % 0 in /  0.0 mm
16:42 79.9 °F /  26.6 °C 50.5 °F /  10.3 °C 29.8 in /  1008.0 hPa ESE 7.6 mph /  12.2 km/h 7.6 mph /  12.2 km/h 36 % 0 in /  0.0 mm
16:47 79.5 °F /  26.4 °C 50.2 °F /  10.1 °C 29.8 in /  1008.0 hPa ENE 4.6 mph /  7.4 km/h 4.6 mph /  7.4 km/h 36 % 0 in /  0.0 mm
16:52 81.5 °F /  27.5 °C 52 °F /  11.1 °C 29.8 in /  1008.0 hPa WSW 4.6 mph /  7.4 km/h 4.6 mph /  7.4 km/h 36 % 0 in /  0.0 mm
16:57 82.2 °F /  27.9 °C 52.5 °F /  11.4 °C 29.8 in /  1008.0 hPa SW 4.9 mph /  7.9 km/h 4.9 mph /  7.9 km/h 36 % 0 in /  0.0 mm
17:02 80.1 °F /  26.7 °C 50.7 °F /  10.4 °C 29.8 in /  1008.0 hPa East 8.1 mph /  13.0 km/h 8.1 mph /  13.0 km/h 36 % 0 in /  0.0 mm
17:07 79.7 °F /  26.5 °C 51.1 °F /  10.6 °C 29.7 in /  1007.0 hPa ESE 10.2 mph /  16.4 km/h 10.2 mph /  16.4 km/h 37 % 0 in /  0.0 mm
17:12 77.7 °F /  25.4 °C 50.2 °F /  10.1 °C 29.7 in /  1007.0 hPa SW 11.5 mph /  18.5 km/h 11.5 mph /  18.5 km/h 38 % 0 in /  0.0 mm
17:17 78.3 °F /  25.7 °C 50.5 °F /  10.3 °C 29.7 in /  1007.0 hPa ENE 5.9 mph /  9.5 km/h 5.9 mph /  9.5 km/h 38 % 0 in /  0.0 mm
17:22 78.1 °F /  25.6 °C 51.1 °F /  10.6 °C 29.7 in /  1007.0 hPa SSE 6.9 mph /  11.1 km/h 6.9 mph /  11.1 km/h 39 % 0 in /  0.0 mm
17:27 77.4 °F /  25.2 °C 50.5 °F /  10.3 °C 29.7 in /  1007.0 hPa ESE 9.2 mph /  14.8 km/h 9.2 mph /  14.8 km/h 39 % 0 in /  0.0 mm
17:32 77.7 °F /  25.4 °C 51.4 °F /  10.8 °C 29.7 in /  1007.0 hPa NNE 5.8 mph /  9.3 km/h 5.8 mph /  9.3 km/h 40 % 0 in /  0.0 mm
17:37 77.9 °F /  25.5 °C 51.6 °F /  10.9 °C 29.8 in /  1008.0 hPa NNW 4.3 mph /  6.9 km/h 4.3 mph /  6.9 km/h 40 % 0 in /  0.0 mm
17:42 79 °F /  26.1 °C 52.5 °F /  11.4 °C 29.8 in /  1008.0 hPa West 5.8 mph /  9.3 km/h 5.8 mph /  9.3 km/h 40 % 0 in /  0.0 mm
17:47 79.7 °F /  26.5 °C 53.2 °F /  11.8 °C 29.8 in /  1008.0 hPa WSW 7.4 mph /  11.9 km/h 7.4 mph /  11.9 km/h 40 % 0 in /  0.0 mm
17:52 82.2 °F /  27.9 °C 53.4 °F /  11.9 °C 29.8 in /  1008.0 hPa NNW 10.4 mph /  16.7 km/h 10.4 mph /  16.7 km/h 37 % 0 in /  0.0 mm
17:57 83.1 °F /  28.4 °C 53.4 °F /  11.9 °C 29.8 in /  1008.0 hPa WNW 8.5 mph /  13.7 km/h 8.5 mph /  13.7 km/h 36 % 0 in /  0.0 mm
18:02 83.8 °F /  28.8 °C 53.2 °F /  11.8 °C 29.8 in /  1008.0 hPa WSW 10.4 mph /  16.7 km/h 10.4 mph /  16.7 km/h 35 % 0 in /  0.0 mm
18:07 84.2 °F /  29.0 °C 52.9 °F /  11.6 °C 29.8 in /  1008.0 hPa West 3.8 mph /  6.1 km/h 3.8 mph /  6.1 km/h 34 % 0 in /  0.0 mm
18:12 81.7 °F /  27.6 °C 52.2 °F /  11.2 °C 29.8 in /  1008.0 hPa WSW 6.9 mph /  11.1 km/h 6.9 mph /  11.1 km/h 36 % 0 in /  0.0 mm
18:17 83.3 °F /  28.5 °C 52.9 °F /  11.6 °C 29.8 in /  1008.0 hPa ENE 2.3 mph /  3.7 km/h 2.4 mph /  3.9 km/h 35 % 0 in /  0.0 mm
18:22 81.9 °F /  27.7 °C 53.1 °F /  11.7 °C 29.8 in /  1008.0 hPa ENE 6.9 mph /  11.1 km/h 6.9 mph /  11.1 km/h 37 % 0 in /  0.0 mm
18:27 82.2 °F /  27.9 °C 51.1 °F /  10.6 °C 29.8 in /  1008.0 hPa SW 12.7 mph /  20.4 km/h 12.7 mph /  20.4 km/h 34 % 0 in /  0.0 mm
18:32 82.4 °F /  28.0 °C 51.3 °F /  10.7 °C 29.8 in /  1008.0 hPa SW 7.4 mph /  11.9 km/h 7.4 mph /  11.9 km/h 34 % 0 in /  0.0 mm
18:37 82.4 °F /  28.0 °C 51.3 °F /  10.7 °C 29.8 in /  1008.0 hPa SW 7.4 mph /  11.9 km/h 7.4 mph /  11.9 km/h 34 % 0 in /  0.0 mm
18:42 82.4 °F /  28.0 °C 51.3 °F /  10.7 °C 29.8 in /  1008.0 hPa SW 7.4 mph /  11.9 km/h 7.4 mph /  11.9 km/h 34 % 0 in /  0.0 mm
18:47 82.4 °F /  28.0 °C 51.3 °F /  10.7 °C 29.8 in /  1008.0 hPa SW 7.4 mph /  11.9 km/h 7.4 mph /  11.9 km/h 34 % 0 in /  0.0 mm
18:52 82.4 °F /  28.0 °C 51.3 °F /  10.7 °C 29.8 in /  1008.0 hPa SW 7.4 mph /  11.9 km/h 7.4 mph /  11.9 km/h 34 % 0 in /  0.0 mm
18:57 82.4 °F /  28.0 °C 51.3 °F /  10.7 °C 29.8 in /  1008.0 hPa SW 7.4 mph /  11.9 km/h 7.4 mph /  11.9 km/h 34 % 0 in /  0.0 mm
19:02 82.4 °F /  28.0 °C 51.3 °F /  10.7 °C 29.8 in /  1008.0 hPa SW 7.4 mph /  11.9 km/h 7.4 mph /  11.9 km/h 34 % 0 in /  0.0 mm
19:07 82.4 °F /  28.0 °C 51.3 °F /  10.7 °C 29.8 in /  1008.0 hPa SW 7.4 mph /  11.9 km/h 7.4 mph /  11.9 km/h 34 % 0 in /  0.0 mm
19:12 82.4 °F /  28.0 °C 51.3 °F /  10.7 °C 29.8 in /  1008.0 hPa SW 7.4 mph /  11.9 km/h 7.4 mph /  11.9 km/h 34 % 0 in /  0.0 mm
19:17 82.4 °F /  28.0 °C 51.3 °F /  10.7 °C 29.8 in /  1008.0 hPa SW 7.4 mph /  11.9 km/h 7.4 mph /  11.9 km/h 34 % 0 in /  0.0 mm
19:20 67.3 °F /  19.6 °C 59.2 °F /  15.1 °C 29.8 in /  1010.0 hPa SW 1 mph /  1.6 km/h 3 mph /  4.8 km/h 75 % 0 in /  0.0 mm
19:22 82.4 °F /  28.0 °C 51.3 °F /  10.7 °C 29.8 in /  1008.0 hPa SW 7.4 mph /  11.9 km/h 7.4 mph /  11.9 km/h 34 % 0 in /  0.0 mm
19:27 82.4 °F /  28.0 °C 51.3 °F /  10.7 °C 29.8 in /  1008.0 hPa SW 7.4 mph /  11.9 km/h 7.4 mph /  11.9 km/h 34 % 0 in /  0.0 mm
19:30 67.1 °F /  19.5 °C 58.8 °F /  14.9 °C 29.8 in /  1010.0 hPa NNE 2 mph /  3.2 km/h 3 mph /  4.8 km/h 75 % 0 in /  0.0 mm
19:32 82.4 °F /  28.0 °C 51.3 °F /  10.7 °C 29.8 in /  1008.0 hPa SW 7.4 mph /  11.9 km/h 7.4 mph /  11.9 km/h 34 % 0 in /  0.0 mm
19:37 82.4 °F /  28.0 °C 51.3 °F /  10.7 °C 29.8 in /  1008.0 hPa SW 7.4 mph /  11.9 km/h 7.4 mph /  11.9 km/h 34 % 0 in /  0.0 mm
19:40 67.1 °F /  19.5 °C 58.8 °F /  14.9 °C 29.8 in /  1010.0 hPa NE 2 mph /  3.2 km/h 3 mph /  4.8 km/h 75 % 0 in /  0.0 mm
19:42 82.4 °F /  28.0 °C 51.3 °F /  10.7 °C 29.8 in /  1008.0 hPa SW 7.4 mph /  11.9 km/h 7.4 mph /  11.9 km/h 34 % 0 in /  0.0 mm
19:43 82.4 °F /  28.0 °C 51.3 °F /  10.7 °C 29.8 in /  1008.0 hPa SW 7.4 mph /  11.9 km/h 7.4 mph /  11.9 km/h 34 % 0 in /  0.0 mm
19:48 82.4 °F /  28.0 °C 51.3 °F /  10.7 °C 29.8 in /  1008.0 hPa SW 7.4 mph /  11.9 km/h 7.4 mph /  11.9 km/h 34 % 0 in /  0.0 mm
19:50 66.9 °F /  19.4 °C 58.6 °F /  14.8 °C 29.8 in /  1010.0 hPa Calm   2 mph /  3.2 km/h 75 % 0 in /  0.0 mm
19:53 82.4 °F /  28.0 °C 51.3 °F /  10.7 °C 29.8 in /  1008.0 hPa SW 7.4 mph /  11.9 km/h 7.4 mph /  11.9 km/h 34 % 0 in /  0.0 mm
19:58 82.4 °F /  28.0 °C 51.3 °F /  10.7 °C 29.8 in /  1008.0 hPa SW 7.4 mph /  11.9 km/h 7.4 mph /  11.9 km/h 34 % 0 in /  0.0 mm
20:00 66.9 °F /  19.4 °C 58.6 °F /  14.8 °C 29.8 in /  1010.0 hPa NNE 1 mph /  1.6 km/h 1 mph /  1.6 km/h 75 % 0 in /  0.0 mm
20:03 82.4 °F /  28.0 °C 51.3 °F /  10.7 °C 29.8 in /  1008.0 hPa SW 7.4 mph /  11.9 km/h 7.4 mph /  11.9 km/h 34 % 0 in /  0.0 mm
20:08 82.4 °F /  28.0 °C 51.3 °F /  10.7 °C 29.8 in /  1008.0 hPa SW 7.4 mph /  11.9 km/h 7.4 mph /  11.9 km/h 34 % 0 in /  0.0 mm
20:10 66.7 °F /  19.3 °C 58.8 °F /  14.9 °C 29.8 in /  1010.0 hPa NNE 1 mph /  1.6 km/h 2 mph /  3.2 km/h 76 % 0 in /  0.0 mm
20:13 82.4 °F /  28.0 °C 51.3 °F /  10.7 °C 29.8 in /  1008.0 hPa SW 7.4 mph /  11.9 km/h 7.4 mph /  11.9 km/h 34 % 0 in /  0.0 mm
20:18 82.4 °F /  28.0 °C 51.3 °F /  10.7 °C 29.8 in /  1008.0 hPa SW 7.4 mph /  11.9 km/h 7.4 mph /  11.9 km/h 34 % 0 in /  0.0 mm
20:20 66.6 °F /  19.2 °C 58.8 °F /  14.9 °C 29.8 in /  1010.0 hPa North 1 mph /  1.6 km/h 2 mph /  3.2 km/h 76 % 0 in /  0.0 mm
20:23 82.4 °F /  28.0 °C 51.3 °F /  10.7 °C 29.8 in /  1008.0 hPa SW 7.4 mph /  11.9 km/h 7.4 mph /  11.9 km/h 34 % 0 in /  0.0 mm
20:28 82.4 °F /  28.0 °C 51.3 °F /  10.7 °C 29.8 in /  1008.0 hPa SW 7.4 mph /  11.9 km/h 7.4 mph /  11.9 km/h 34 % 0 in /  0.0 mm
20:30 66.4 °F /  19.1 °C 58.6 °F /  14.8 °C 29.8 in /  1010.0 hPa NNE 1 mph /  1.6 km/h 2 mph /  3.2 km/h 76 % 0 in /  0.0 mm
20:33 82.4 °F /  28.0 °C 51.3 °F /  10.7 °C 29.8 in /  1008.0 hPa SW 7.4 mph /  11.9 km/h 7.4 mph /  11.9 km/h 34 % 0 in /  0.0 mm
20:38 82.4 °F /  28.0 °C 51.3 °F /  10.7 °C 29.8 in /  1008.0 hPa SW 7.4 mph /  11.9 km/h 7.4 mph /  11.9 km/h 34 % 0 in /  0.0 mm
20:40 66.4 °F /  19.1 °C 58.6 °F /  14.8 °C 29.8 in /  1010.0 hPa Calm   2 mph /  3.2 km/h 76 % 0 in /  0.0 mm
20:43 82.4 °F /  28.0 °C 51.3 °F /  10.7 °C 29.8 in /  1008.0 hPa SW 7.4 mph /  11.9 km/h 7.4 mph /  11.9 km/h 34 % 0 in /  0.0 mm
20:48 82.4 °F /  28.0 °C 51.3 °F /  10.7 °C 29.8 in /  1008.0 hPa SW 7.4 mph /  11.9 km/h 7.4 mph /  11.9 km/h 34 % 0 in /  0.0 mm
20:50 66.2 °F /  19.0 °C 58.5 °F /  14.7 °C 29.8 in /  1010.0 hPa Calm   1 mph /  1.6 km/h 76 % 0 in /  0.0 mm
20:53 82.4 °F /  28.0 °C 51.3 °F /  10.7 °C 29.8 in /  1008.0 hPa SW 7.4 mph /  11.9 km/h 7.4 mph /  11.9 km/h 34 % 0 in /  0.0 mm
20:58 82.4 °F /  28.0 °C 51.3 °F /  10.7 °C 29.8 in /  1008.0 hPa SW 7.4 mph /  11.9 km/h 7.4 mph /  11.9 km/h 34 % 0 in /  0.0 mm
21:00 66 °F /  18.9 °C 59 °F /  15.0 °C 29.8 in /  1010.7 hPa Calm   1 mph /  1.6 km/h 78 % 0 in /  0.0 mm
21:03 82.4 °F /  28.0 °C 51.3 °F /  10.7 °C 29.8 in /  1008.0 hPa SW 7.4 mph /  11.9 km/h 7.4 mph /  11.9 km/h 34 % 0 in /  0.0 mm
21:08 82.4 °F /  28.0 °C 51.3 °F /  10.7 °C 29.8 in /  1008.0 hPa SW 7.4 mph /  11.9 km/h 7.4 mph /  11.9 km/h 34 % 0 in /  0.0 mm
21:10 66 °F /  18.9 °C 59 °F /  15.0 °C 29.8 in /  1010.7 hPa Calm   1 mph /  1.6 km/h 78 % 0 in /  0.0 mm
21:13 82.4 °F /  28.0 °C 51.3 °F /  10.7 °C 29.8 in /  1008.0 hPa SW 7.4 mph /  11.9 km/h 7.4 mph /  11.9 km/h 34 % 0 in /  0.0 mm
21:18 82.4 °F /  28.0 °C 51.3 °F /  10.7 °C 29.8 in /  1008.0 hPa SW 7.4 mph /  11.9 km/h 7.4 mph /  11.9 km/h 34 % 0 in /  0.0 mm
21:20 66.2 °F /  19.0 °C 58.5 °F /  14.7 °C 29.8 in /  1010.7 hPa North 1 mph /  1.6 km/h 2 mph /  3.2 km/h 76 % 0 in /  0.0 mm
21:23 82.4 °F /  28.0 °C 51.3 °F /  10.7 °C 29.8 in /  1008.0 hPa SW 7.4 mph /  11.9 km/h 7.4 mph /  11.9 km/h 34 % 0 in /  0.0 mm
21:28 82.4 °F /  28.0 °C 51.3 °F /  10.7 °C 29.8 in /  1008.0 hPa SW 7.4 mph /  11.9 km/h 7.4 mph /  11.9 km/h 34 % 0 in /  0.0 mm
21:30 66 °F /  18.9 °C 59 °F /  15.0 °C 29.8 in /  1010.0 hPa Calm     78 % 0 in /  0.0 mm
21:33 82.4 °F /  28.0 °C 51.3 °F /  10.7 °C 29.8 in /  1008.0 hPa SW 7.4 mph /  11.9 km/h 7.4 mph /  11.9 km/h 34 % 0 in /  0.0 mm
21:38 82.4 °F /  28.0 °C 51.3 °F /  10.7 °C 29.8 in /  1008.0 hPa SW 7.4 mph /  11.9 km/h 7.4 mph /  11.9 km/h 34 % 0 in /  0.0 mm
21:40 65.7 °F /  18.7 °C 58.6 °F /  14.8 °C 29.8 in /  1010.7 hPa WNW 1 mph /  1.6 km/h 2 mph /  3.2 km/h 78 % 0 in /  0.0 mm
21:43 82.4 °F /  28.0 °C 51.3 °F /  10.7 °C 29.8 in /  1008.0 hPa SW 7.4 mph /  11.9 km/h 7.4 mph /  11.9 km/h 34 % 0 in /  0.0 mm
21:48 82.4 °F /  28.0 °C 51.3 °F /  10.7 °C 29.8 in /  1008.0 hPa SW 7.4 mph /  11.9 km/h 7.4 mph /  11.9 km/h 34 % 0 in /  0.0 mm
21:50 65.3 °F /  18.5 °C 58.3 °F /  14.6 °C 29.8 in /  1010.7 hPa West 1 mph /  1.6 km/h 2 mph /  3.2 km/h 78 % 0 in /  0.0 mm
21:53 82.4 °F /  28.0 °C 51.3 °F /  10.7 °C 29.8 in /  1008.0 hPa SW 7.4 mph /  11.9 km/h 7.4 mph /  11.9 km/h 34 % 0 in /  0.0 mm
21:58 82.4 °F /  28.0 °C 51.3 °F /  10.7 °C 29.8 in /  1008.0 hPa SW 7.4 mph /  11.9 km/h 7.4 mph /  11.9 km/h 34 % 0 in /  0.0 mm
22:00 65.3 °F /  18.5 °C 58.3 °F /  14.6 °C 29.8 in /  1010.7 hPa WSW 1 mph /  1.6 km/h 1 mph /  1.6 km/h 78 % 0 in /  0.0 mm
22:03 82.4 °F /  28.0 °C 51.3 °F /  10.7 °C 29.8 in /  1008.0 hPa SW 7.4 mph /  11.9 km/h 7.4 mph /  11.9 km/h 34 % 0 in /  0.0 mm
22:08 82.4 °F /  28.0 °C 51.3 °F /  10.7 °C 29.8 in /  1008.0 hPa SW 7.4 mph /  11.9 km/h 7.4 mph /  11.9 km/h 34 % 0 in /  0.0 mm
22:10 65.3 °F /  18.5 °C 58.3 °F /  14.6 °C 29.8 in /  1010.7 hPa WSW 1 mph /  1.6 km/h 1 mph /  1.6 km/h 78 % 0 in /  0.0 mm
22:13 82.4 °F /  28.0 °C 51.3 °F /  10.7 °C 29.8 in /  1008.0 hPa SW 7.4 mph /  11.9 km/h 7.4 mph /  11.9 km/h 34 % 0 in /  0.0 mm
22:18 82.4 °F /  28.0 °C 51.3 °F /  10.7 °C 29.8 in /  1008.0 hPa SW 7.4 mph /  11.9 km/h 7.4 mph /  11.9 km/h 34 % 0 in /  0.0 mm
22:20 65.5 °F /  18.6 °C 58.8 °F /  14.9 °C 29.8 in /  1010.7 hPa West 1 mph /  1.6 km/h 2 mph /  3.2 km/h 79 % 0 in /  0.0 mm
22:23 82.4 °F /  28.0 °C 51.3 °F /  10.7 °C 29.8 in /  1008.0 hPa SW 7.4 mph /  11.9 km/h 7.4 mph /  11.9 km/h 34 % 0 in /  0.0 mm
22:28 82.4 °F /  28.0 °C 51.3 °F /  10.7 °C 29.8 in /  1008.0 hPa SW 7.4 mph /  11.9 km/h 7.4 mph /  11.9 km/h 34 % 0 in /  0.0 mm
22:30 65.5 °F /  18.6 °C 59.2 °F /  15.1 °C 29.8 in /  1010.7 hPa Calm   1 mph /  1.6 km/h 80 % 0 in /  0.0 mm
22:33 82.4 °F /  28.0 °C 51.3 °F /  10.7 °C 29.8 in /  1008.0 hPa SW 7.4 mph /  11.9 km/h 7.4 mph /  11.9 km/h 34 % 0 in /  0.0 mm
22:38 82.4 °F /  28.0 °C 51.3 °F /  10.7 °C 29.8 in /  1008.0 hPa SW 7.4 mph /  11.9 km/h 7.4 mph /  11.9 km/h 34 % 0 in /  0.0 mm
22:40 65.3 °F /  18.5 °C 58.6 °F /  14.8 °C 29.8 in /  1010.7 hPa Calm   1 mph /  1.6 km/h 79 % 0 in /  0.0 mm
22:43 82.4 °F /  28.0 °C 51.3 °F /  10.7 °C 29.8 in /  1008.0 hPa SW 7.4 mph /  11.9 km/h 7.4 mph /  11.9 km/h 34 % 0 in /  0.0 mm
22:48 82.4 °F /  28.0 °C 51.3 °F /  10.7 °C 29.8 in /  1008.0 hPa SW 7.4 mph /  11.9 km/h 7.4 mph /  11.9 km/h 34 % 0 in /  0.0 mm
22:50 65.5 °F /  18.6 °C 59.2 °F /  15.1 °C 29.8 in /  1010.7 hPa Calm     80 % 0 in /  0.0 mm
22:53 82.4 °F /  28.0 °C 51.3 °F /  10.7 °C 29.8 in /  1008.0 hPa SW 7.4 mph /  11.9 km/h 7.4 mph /  11.9 km/h 34 % 0 in /  0.0 mm
22:58 82.4 °F /  28.0 °C 51.3 °F /  10.7 °C 29.8 in /  1008.0 hPa SW 7.4 mph /  11.9 km/h 7.4 mph /  11.9 km/h 34 % 0 in /  0.0 mm
23:00 65.5 °F /  18.6 °C 59.2 °F /  15.1 °C 29.8 in /  1010.7 hPa Calm   1 mph /  1.6 km/h 80 % 0 in /  0.0 mm
23:03 82.4 °F /  28.0 °C 51.3 °F /  10.7 °C 29.8 in /  1008.0 hPa SW 7.4 mph /  11.9 km/h 7.4 mph /  11.9 km/h 34 % 0 in /  0.0 mm
23:08 82.4 °F /  28.0 °C 51.3 °F /  10.7 °C 29.8 in /  1008.0 hPa SW 7.4 mph /  11.9 km/h 7.4 mph /  11.9 km/h 34 % 0 in /  0.0 mm
23:10 65.3 °F /  18.5 °C 59 °F /  15.0 °C 29.8 in /  1010.7 hPa Calm     80 % 0 in /  0.0 mm
23:13 82.4 °F /  28.0 °C 51.3 °F /  10.7 °C 29.8 in /  1008.0 hPa SW 7.4 mph /  11.9 km/h 7.4 mph /  11.9 km/h 34 % 0 in /  0.0 mm
23:18 82.4 °F /  28.0 °C 51.3 °F /  10.7 °C 29.8 in /  1008.0 hPa SW 7.4 mph /  11.9 km/h 7.4 mph /  11.9 km/h 34 % 0 in /  0.0 mm
23:20 64.9 °F /  18.3 °C 58.6 °F /  14.8 °C 29.8 in /  1010.7 hPa Calm   1 mph /  1.6 km/h 80 % 0 in /  0.0 mm
23:23 82.4 °F /  28.0 °C 51.3 °F /  10.7 °C 29.8 in /  1008.0 hPa SW 7.4 mph /  11.9 km/h 7.4 mph /  11.9 km/h 34 % 0 in /  0.0 mm
23:28 82.4 °F /  28.0 °C 51.3 °F /  10.7 °C 29.8 in /  1008.0 hPa SW 7.4 mph /  11.9 km/h 7.4 mph /  11.9 km/h 34 % 0 in /  0.0 mm
23:30 64.8 °F /  18.2 °C 58.8 °F /  14.9 °C 29.8 in /  1010.7 hPa SW 1 mph /  1.6 km/h 3 mph /  4.8 km/h 81 % 0 in /  0.0 mm
23:33 82.4 °F /  28.0 °C 51.3 °F /  10.7 °C 29.8 in /  1008.0 hPa SW 7.4 mph /  11.9 km/h 7.4 mph /  11.9 km/h 34 % 0 in /  0.0 mm
23:38 82.4 °F /  28.0 °C 51.3 °F /  10.7 °C 29.8 in /  1008.0 hPa SW 7.4 mph /  11.9 km/h 7.4 mph /  11.9 km/h 34 % 0 in /  0.0 mm
23:40 64.2 °F /  17.9 °C 57.9 °F /  14.4 °C 29.9 in /  1011.7 hPa SSW 1 mph /  1.6 km/h 2 mph /  3.2 km/h 80 % 0 in /  0.0 mm
23:43 82.4 °F /  28.0 °C 51.3 °F /  10.7 °C 29.8 in /  1008.0 hPa SW 7.4 mph /  11.9 km/h 7.4 mph /  11.9 km/h 34 % 0 in /  0.0 mm
23:48 82.4 °F /  28.0 °C 51.3 °F /  10.7 °C 29.8 in /  1008.0 hPa SW 7.4 mph /  11.9 km/h 7.4 mph /  11.9 km/h 34 % 0 in /  0.0 mm
23:50 64 °F /  17.8 °C 58.1 °F /  14.5 °C 29.9 in /  1011.7 hPa WSW 1 mph /  1.6 km/h 1 mph /  1.6 km/h 81 % 0 in /  0.0 mm
23:53 82.4 °F /  28.0 °C 51.3 °F /  10.7 °C 29.8 in /  1008.0 hPa SW 7.4 mph /  11.9 km/h 7.4 mph /  11.9 km/h 34 % 0 in /  0.0 mm
23:58 82.4 °F /  28.0 °C 51.3 °F /  10.7 °C 29.8 in /  1008.0 hPa SW 7.4 mph /  11.9 km/h 7.4 mph /  11.9 km/h 34 % 0 in /  0.0 mm
Meteo Sesrovires
Elogis d' Weather Underground - 3.75 mb

Guio original per  Jim McMurry - jmcmurry@mwt.net Adaptat per a la plantilla per  Wim van der Kuil - Leuven-Template.eu

Trobareu la nostra informacio del temps tambe a:

Weather Underground

AWEKAS